sensor_id;sensor_type;location;lat;lon;timestamp;P1;durP1;ratioP1;P2;durP2;ratioP2
22425;SDS011;11380;50.822;15.790;2023-09-12T00:02:52;78.17;;;60.37;;
22425;SDS011;11380;50.822;15.790;2023-09-12T00:08:00;82.15;;;60.80;;
22425;SDS011;11380;50.822;15.790;2023-09-12T00:13:08;79.65;;;60.17;;
22425;SDS011;11380;50.822;15.790;2023-09-12T00:18:15;79.20;;;61.20;;
22425;SDS011;11380;50.822;15.790;2023-09-12T00:23:23;78.30;;;61.23;;
22425;SDS011;11380;50.822;15.790;2023-09-12T00:28:30;79.67;;;60.20;;
22425;SDS011;11380;50.822;15.790;2023-09-12T00:33:39;76.87;;;60.20;;
22425;SDS011;11380;50.822;15.790;2023-09-12T00:38:46;76.40;;;60.17;;
22425;SDS011;11380;50.822;15.790;2023-09-12T00:43:54;77.30;;;59.65;;
22425;SDS011;11380;50.822;15.790;2023-09-12T00:49:02;77.10;;;60.77;;
22425;SDS011;11380;50.822;15.790;2023-09-12T00:54:12;80.00;;;61.54;;
22425;SDS011;11380;50.822;15.790;2023-09-12T00:59:19;77.03;;;60.52;;
22425;SDS011;11380;50.822;15.790;2023-09-12T01:04:27;77.87;;;60.20;;
22425;SDS011;11380;50.822;15.790;2023-09-12T01:09:37;78.52;;;60.88;;
22425;SDS011;11380;50.822;15.790;2023-09-12T01:14:46;78.50;;;60.20;;
22425;SDS011;11380;50.822;15.790;2023-09-12T01:19:54;76.03;;;59.77;;
22425;SDS011;11380;50.822;15.790;2023-09-12T01:25:21;77.83;;;60.70;;
22425;SDS011;11380;50.822;15.790;2023-09-12T01:30:59;78.97;;;59.80;;
22425;SDS011;11380;50.822;15.790;2023-09-12T01:36:09;74.73;;;59.83;;
22425;SDS011;11380;50.822;15.790;2023-09-12T01:41:18;75.97;;;59.45;;
22425;SDS011;11380;50.822;15.790;2023-09-12T01:46:26;80.55;;;61.42;;
22425;SDS011;11380;50.822;15.790;2023-09-12T01:51:33;77.87;;;60.73;;
22425;SDS011;11380;50.822;15.790;2023-09-12T01:56:42;81.30;;;60.33;;
22425;SDS011;11380;50.822;15.790;2023-09-12T02:01:51;75.97;;;59.77;;
22425;SDS011;11380;50.822;15.790;2023-09-12T02:07:00;76.50;;;60.40;;
22425;SDS011;11380;50.822;15.790;2023-09-12T02:12:08;77.27;;;61.27;;
22425;SDS011;11380;50.822;15.790;2023-09-12T02:17:15;80.37;;;60.50;;
22425;SDS011;11380;50.822;15.790;2023-09-12T02:22:23;78.00;;;59.20;;
22425;SDS011;11380;50.822;15.790;2023-09-12T02:27:30;79.72;;;59.15;;
22425;SDS011;11380;50.822;15.790;2023-09-12T02:32:37;76.60;;;59.73;;
22425;SDS011;11380;50.822;15.790;2023-09-12T02:37:47;74.77;;;59.37;;
22425;SDS011;11380;50.822;15.790;2023-09-12T02:42:55;79.90;;;59.97;;
22425;SDS011;11380;50.822;15.790;2023-09-12T02:48:02;76.83;;;59.70;;
22425;SDS011;11380;50.822;15.790;2023-09-12T02:53:12;78.37;;;60.52;;
22425;SDS011;11380;50.822;15.790;2023-09-12T02:58:19;77.20;;;60.17;;
22425;SDS011;11380;50.822;15.790;2023-09-12T03:03:26;76.23;;;59.47;;
22425;SDS011;11380;50.822;15.790;2023-09-12T03:08:33;77.80;;;59.50;;
22425;SDS011;11380;50.822;15.790;2023-09-12T03:13:41;77.03;;;60.70;;
22425;SDS011;11380;50.822;15.790;2023-09-12T03:18:48;103.90;;;83.37;;
22425;SDS011;11380;50.822;15.790;2023-09-12T03:23:55;75.30;;;59.30;;
22425;SDS011;11380;50.822;15.790;2023-09-12T03:29:03;75.30;;;60.33;;
22425;SDS011;11380;50.822;15.790;2023-09-12T03:34:12;75.62;;;59.75;;
22425;SDS011;11380;50.822;15.790;2023-09-12T03:39:19;76.20;;;59.40;;
22425;SDS011;11380;50.822;15.790;2023-09-12T03:44:27;76.57;;;59.77;;
22425;SDS011;11380;50.822;15.790;2023-09-12T03:49:34;75.80;;;59.77;;
22425;SDS011;11380;50.822;15.790;2023-09-12T03:54:42;75.27;;;60.27;;
22425;SDS011;11380;50.822;15.790;2023-09-12T03:59:50;76.47;;;60.53;;
22425;SDS011;11380;50.822;15.790;2023-09-12T04:04:57;75.63;;;59.77;;
22425;SDS011;11380;50.822;15.790;2023-09-12T04:10:05;76.00;;;59.67;;
22425;SDS011;11380;50.822;15.790;2023-09-12T04:15:12;78.10;;;60.10;;
22425;SDS011;11380;50.822;15.790;2023-09-12T04:20:20;76.20;;;59.57;;
22425;SDS011;11380;50.822;15.790;2023-09-12T04:25:27;74.60;;;59.67;;
22425;SDS011;11380;50.822;15.790;2023-09-12T04:30:35;71.43;;;57.97;;
22425;SDS011;11380;50.822;15.790;2023-09-12T04:35:46;73.77;;;58.20;;
22425;SDS011;11380;50.822;15.790;2023-09-12T04:40:54;76.03;;;59.67;;
22425;SDS011;11380;50.822;15.790;2023-09-12T04:46:06;75.00;;;60.37;;
22425;SDS011;11380;50.822;15.790;2023-09-12T04:51:13;75.73;;;59.87;;
22425;SDS011;11380;50.822;15.790;2023-09-12T04:56:21;75.55;;;60.78;;
22425;SDS011;11380;50.822;15.790;2023-09-12T05:01:30;74.00;;;59.80;;
22425;SDS011;11380;50.822;15.790;2023-09-12T05:06:37;72.93;;;59.30;;
22425;SDS011;11380;50.822;15.790;2023-09-12T05:11:44;75.07;;;60.10;;
22425;SDS011;11380;50.822;15.790;2023-09-12T05:16:51;75.60;;;60.33;;
22425;SDS011;11380;50.822;15.790;2023-09-12T05:21:58;75.13;;;60.43;;
22425;SDS011;11380;50.822;15.790;2023-09-12T05:27:06;74.20;;;59.90;;
22425;SDS011;11380;50.822;15.790;2023-09-12T05:32:13;74.63;;;60.47;;
22425;SDS011;11380;50.822;15.790;2023-09-12T05:37:22;75.80;;;59.58;;
22425;SDS011;11380;50.822;15.790;2023-09-12T05:42:30;73.90;;;59.83;;
22425;SDS011;11380;50.822;15.790;2023-09-12T05:47:37;80.00;;;61.80;;
22425;SDS011;11380;50.822;15.790;2023-09-12T05:52:44;74.30;;;60.23;;
22425;SDS011;11380;50.822;15.790;2023-09-12T05:57:51;78.00;;;62.57;;
22425;SDS011;11380;50.822;15.790;2023-09-12T06:02:59;81.67;;;62.98;;
22425;SDS011;11380;50.822;15.790;2023-09-12T06:08:07;79.50;;;62.57;;
22425;SDS011;11380;50.822;15.790;2023-09-12T06:13:16;78.48;;;62.06;;
22425;SDS011;11380;50.822;15.790;2023-09-12T06:18:23;81.33;;;62.47;;
22425;SDS011;11380;50.822;15.790;2023-09-12T06:23:31;81.10;;;62.60;;
22425;SDS011;11380;50.822;15.790;2023-09-12T06:28:38;79.27;;;63.83;;
22425;SDS011;11380;50.822;15.790;2023-09-12T06:33:46;82.13;;;63.57;;
22425;SDS011;11380;50.822;15.790;2023-09-12T06:38:53;81.03;;;64.13;;
22425;SDS011;11380;50.822;15.790;2023-09-12T06:44:01;81.80;;;64.03;;
22425;SDS011;11380;50.822;15.790;2023-09-12T06:49:09;81.17;;;64.03;;
22425;SDS011;11380;50.822;15.790;2023-09-12T06:54:17;81.67;;;65.13;;
22425;SDS011;11380;50.822;15.790;2023-09-12T06:59:23;82.30;;;63.80;;
22425;SDS011;11380;50.822;15.790;2023-09-12T07:04:39;79.53;;;63.63;;
22425;SDS011;11380;50.822;15.790;2023-09-12T07:10:03;83.42;;;63.63;;
22425;SDS011;11380;50.822;15.790;2023-09-12T07:15:12;85.03;;;65.27;;
22425;SDS011;11380;50.822;15.790;2023-09-12T07:20:20;90.03;;;65.87;;
22425;SDS011;11380;50.822;15.790;2023-09-12T07:25:28;86.42;;;65.72;;
22425;SDS011;11380;50.822;15.790;2023-09-12T07:30:35;92.93;;;69.43;;
22425;SDS011;11380;50.822;15.790;2023-09-12T07:35:42;107.43;;;81.20;;
22425;SDS011;11380;50.822;15.790;2023-09-12T07:40:51;94.40;;;72.57;;
22425;SDS011;11380;50.822;15.790;2023-09-12T07:45:58;92.93;;;71.57;;
22425;SDS011;11380;50.822;15.790;2023-09-12T07:51:11;95.83;;;69.97;;
22425;SDS011;11380;50.822;15.790;2023-09-12T07:56:22;93.40;;;71.80;;
22425;SDS011;11380;50.822;15.790;2023-09-12T08:01:30;90.95;;;67.53;;
22425;SDS011;11380;50.822;15.790;2023-09-12T08:06:37;93.40;;;66.33;;
22425;SDS011;11380;50.822;15.790;2023-09-12T08:11:46;88.87;;;66.73;;
22425;SDS011;11380;50.822;15.790;2023-09-12T08:16:52;89.93;;;69.40;;
22425;SDS011;11380;50.822;15.790;2023-09-12T08:22:01;87.80;;;66.23;;
22425;SDS011;11380;50.822;15.790;2023-09-12T08:27:09;86.60;;;64.97;;
22425;SDS011;11380;50.822;15.790;2023-09-12T08:32:17;85.93;;;65.27;;
22425;SDS011;11380;50.822;15.790;2023-09-12T08:37:24;86.67;;;66.55;;
22425;SDS011;11380;50.822;15.790;2023-09-12T08:42:33;87.50;;;67.93;;
22425;SDS011;11380;50.822;15.790;2023-09-12T08:47:50;88.20;;;69.50;;
22425;SDS011;11380;50.822;15.790;2023-09-12T08:52:59;87.13;;;68.73;;
22425;SDS011;11380;50.822;15.790;2023-09-12T08:58:09;87.02;;;67.30;;
22425;SDS011;11380;50.822;15.790;2023-09-12T09:03:19;89.77;;;66.90;;
22425;SDS011;11380;50.822;15.790;2023-09-12T09:08:27;91.50;;;69.03;;
22425;SDS011;11380;50.822;15.790;2023-09-12T09:13:37;89.37;;;68.90;;
22425;SDS011;11380;50.822;15.790;2023-09-12T09:18:51;88.27;;;67.47;;
22425;SDS011;11380;50.822;15.790;2023-09-12T09:24:07;90.87;;;68.00;;
22425;SDS011;11380;50.822;15.790;2023-09-12T09:29:19;85.93;;;66.83;;
22425;SDS011;11380;50.822;15.790;2023-09-12T09:34:27;89.73;;;67.17;;
22425;SDS011;11380;50.822;15.790;2023-09-12T09:39:36;86.83;;;66.57;;
22425;SDS011;11380;50.822;15.790;2023-09-12T09:44:45;88.87;;;66.07;;
22425;SDS011;11380;50.822;15.790;2023-09-12T09:49:53;86.47;;;66.17;;
22425;SDS011;11380;50.822;15.790;2023-09-12T09:55:06;86.83;;;67.10;;
22425;SDS011;11380;50.822;15.790;2023-09-12T10:00:13;86.53;;;66.50;;
22425;SDS011;11380;50.822;15.790;2023-09-12T10:05:22;88.50;;;65.83;;
22425;SDS011;11380;50.822;15.790;2023-09-12T10:10:29;85.77;;;65.62;;
22425;SDS011;11380;50.822;15.790;2023-09-12T10:15:38;88.10;;;66.53;;
22425;SDS011;11380;50.822;15.790;2023-09-12T10:20:50;87.07;;;66.00;;
22425;SDS011;11380;50.822;15.790;2023-09-12T10:26:03;85.30;;;64.97;;
22425;SDS011;11380;50.822;15.790;2023-09-12T10:31:11;85.25;;;65.40;;
22425;SDS011;11380;50.822;15.790;2023-09-12T10:36:19;87.10;;;65.73;;
22425;SDS011;11380;50.822;15.790;2023-09-12T10:41:28;88.53;;;66.17;;
22425;SDS011;11380;50.822;15.790;2023-09-12T10:46:39;86.87;;;66.07;;
22425;SDS011;11380;50.822;15.790;2023-09-12T10:51:47;88.10;;;65.63;;
22425;SDS011;11380;50.822;15.790;2023-09-12T10:57:07;84.00;;;64.73;;
22425;SDS011;11380;50.822;15.790;2023-09-12T11:02:30;86.75;;;65.85;;
22425;SDS011;11380;50.822;15.790;2023-09-12T11:12:50;87.47;;;65.63;;
22425;SDS011;11380;50.822;15.790;2023-09-12T11:18:02;86.97;;;66.07;;
22425;SDS011;11380;50.822;15.790;2023-09-12T11:23:13;86.95;;;66.57;;
22425;SDS011;11380;50.822;15.790;2023-09-12T11:28:19;85.00;;;65.63;;
22425;SDS011;11380;50.822;15.790;2023-09-12T11:33:27;88.40;;;65.63;;
22425;SDS011;11380;50.822;15.790;2023-09-12T11:38:34;85.73;;;65.77;;
22425;SDS011;11380;50.822;15.790;2023-09-12T11:43:41;88.50;;;64.83;;
22425;SDS011;11380;50.822;15.790;2023-09-12T11:48:48;84.27;;;65.23;;
22425;SDS011;11380;50.822;15.790;2023-09-12T11:53:55;85.87;;;66.37;;
22425;SDS011;11380;50.822;15.790;2023-09-12T11:59:04;86.00;;;66.07;;
22425;SDS011;11380;50.822;15.790;2023-09-12T12:04:11;84.58;;;65.22;;
22425;SDS011;11380;50.822;15.790;2023-09-12T12:09:18;90.17;;;66.57;;
22425;SDS011;11380;50.822;15.790;2023-09-12T12:14:25;89.15;;;66.25;;
22425;SDS011;11380;50.822;15.790;2023-09-12T12:19:31;85.67;;;65.90;;
22425;SDS011;11380;50.822;15.790;2023-09-12T12:24:43;85.87;;;65.90;;
22425;SDS011;11380;50.822;15.790;2023-09-12T12:29:55;90.67;;;66.77;;
22425;SDS011;11380;50.822;15.790;2023-09-12T12:35:02;85.90;;;66.55;;
22425;SDS011;11380;50.822;15.790;2023-09-12T12:40:12;88.13;;;66.47;;
22425;SDS011;11380;50.822;15.790;2023-09-12T12:45:20;86.63;;;66.17;;
22425;SDS011;11380;50.822;15.790;2023-09-12T12:50:29;88.60;;;67.17;;
22425;SDS011;11380;50.822;15.790;2023-09-12T12:55:40;87.83;;;67.13;;
22425;SDS011;11380;50.822;15.790;2023-09-12T13:00:47;87.87;;;67.50;;
22425;SDS011;11380;50.822;15.790;2023-09-12T13:05:55;90.90;;;67.63;;
22425;SDS011;11380;50.822;15.790;2023-09-12T13:11:04;87.17;;;67.03;;
22425;SDS011;11380;50.822;15.790;2023-09-12T13:16:12;88.62;;;66.82;;
22425;SDS011;11380;50.822;15.790;2023-09-12T13:21:21;87.23;;;66.93;;
22425;SDS011;11380;50.822;15.790;2023-09-12T13:26:31;87.27;;;66.50;;
22425;SDS011;11380;50.822;15.790;2023-09-12T13:31:38;88.00;;;66.53;;
22425;SDS011;11380;50.822;15.790;2023-09-12T13:36:45;90.50;;;67.63;;
22425;SDS011;11380;50.822;15.790;2023-09-12T13:42:33;90.45;;;67.70;;
22425;SDS011;11380;50.822;15.790;2023-09-12T13:47:40;87.27;;;66.87;;
22425;SDS011;11380;50.822;15.790;2023-09-12T13:52:47;88.37;;;66.82;;
22425;SDS011;11380;50.822;15.790;2023-09-12T13:57:54;86.83;;;66.70;;
22425;SDS011;11380;50.822;15.790;2023-09-12T14:03:01;90.10;;;68.13;;
22425;SDS011;11380;50.822;15.790;2023-09-12T14:08:09;88.30;;;67.63;;
22425;SDS011;11380;50.822;15.790;2023-09-12T14:13:17;86.78;;;67.10;;
22425;SDS011;11380;50.822;15.790;2023-09-12T14:18:26;86.63;;;67.82;;
22425;SDS011;11380;50.822;15.790;2023-09-12T14:23:34;87.10;;;66.83;;
22425;SDS011;11380;50.822;15.790;2023-09-12T14:28:42;91.70;;;68.03;;
22425;SDS011;11380;50.822;15.790;2023-09-12T14:33:49;90.43;;;68.60;;
22425;SDS011;11380;50.822;15.790;2023-09-12T14:38:57;90.70;;;67.83;;
22425;SDS011;11380;50.822;15.790;2023-09-12T14:44:05;96.33;;;72.63;;
22425;SDS011;11380;50.822;15.790;2023-09-12T14:49:13;99.33;;;72.17;;
22425;SDS011;11380;50.822;15.790;2023-09-12T14:54:20;90.10;;;69.60;;
22425;SDS011;11380;50.822;15.790;2023-09-12T14:59:27;88.92;;;67.58;;
22425;SDS011;11380;50.822;15.790;2023-09-12T15:04:33;88.93;;;67.27;;
22425;SDS011;11380;50.822;15.790;2023-09-12T15:09:40;90.73;;;69.10;;
22425;SDS011;11380;50.822;15.790;2023-09-12T15:14:47;87.60;;;67.73;;
22425;SDS011;11380;50.822;15.790;2023-09-12T15:19:55;87.90;;;67.73;;
22425;SDS011;11380;50.822;15.790;2023-09-12T15:25:02;89.72;;;67.60;;
22425;SDS011;11380;50.822;15.790;2023-09-12T15:30:13;88.90;;;68.78;;
22425;SDS011;11380;50.822;15.790;2023-09-12T15:35:20;91.65;;;67.90;;
22425;SDS011;11380;50.822;15.790;2023-09-12T15:40:26;91.50;;;68.45;;
22425;SDS011;11380;50.822;15.790;2023-09-12T15:45:33;89.80;;;68.50;;
22425;SDS011;11380;50.822;15.790;2023-09-12T15:50:42;89.77;;;67.63;;
22425;SDS011;11380;50.822;15.790;2023-09-12T15:55:48;88.33;;;67.30;;
22425;SDS011;11380;50.822;15.790;2023-09-12T16:00:56;89.40;;;67.27;;
22425;SDS011;11380;50.822;15.790;2023-09-12T16:06:06;89.87;;;68.13;;
22425;SDS011;11380;50.822;15.790;2023-09-12T16:11:13;95.97;;;68.87;;
22425;SDS011;11380;50.822;15.790;2023-09-12T16:16:20;161.43;;;72.40;;
22425;SDS011;11380;50.822;15.790;2023-09-12T16:21:27;89.85;;;68.55;;
22425;SDS011;11380;50.822;15.790;2023-09-12T16:26:34;90.43;;;68.03;;
22425;SDS011;11380;50.822;15.790;2023-09-12T16:31:42;96.90;;;72.78;;
22425;SDS011;11380;50.822;15.790;2023-09-12T16:36:49;96.93;;;73.23;;
22425;SDS011;11380;50.822;15.790;2023-09-12T16:41:57;94.22;;;71.57;;
22425;SDS011;11380;50.822;15.790;2023-09-12T16:47:04;95.47;;;72.67;;
22425;SDS011;11380;50.822;15.790;2023-09-12T16:52:13;94.10;;;71.20;;
22425;SDS011;11380;50.822;15.790;2023-09-12T16:57:20;92.45;;;70.32;;
22425;SDS011;11380;50.822;15.790;2023-09-12T17:02:27;90.60;;;68.97;;
22425;SDS011;11380;50.822;15.790;2023-09-12T17:07:37;92.75;;;69.53;;
22425;SDS011;11380;50.822;15.790;2023-09-12T17:12:44;88.20;;;67.10;;
22425;SDS011;11380;50.822;15.790;2023-09-12T17:17:52;92.00;;;68.20;;
22425;SDS011;11380;50.822;15.790;2023-09-12T17:22:59;106.80;;;80.27;;
22425;SDS011;11380;50.822;15.790;2023-09-12T17:28:08;103.93;;;79.63;;
22425;SDS011;11380;50.822;15.790;2023-09-12T17:33:14;90.17;;;67.50;;
22425;SDS011;11380;50.822;15.790;2023-09-12T17:38:21;90.77;;;68.00;;
22425;SDS011;11380;50.822;15.790;2023-09-12T17:43:29;88.95;;;68.02;;
22425;SDS011;11380;50.822;15.790;2023-09-12T17:48:38;89.57;;;67.43;;
22425;SDS011;11380;50.822;15.790;2023-09-12T17:53:46;85.93;;;65.50;;
22425;SDS011;11380;50.822;15.790;2023-09-12T17:58:54;84.67;;;63.70;;
22425;SDS011;11380;50.822;15.790;2023-09-12T18:04:00;84.63;;;65.13;;
22425;SDS011;11380;50.822;15.790;2023-09-12T18:09:09;86.28;;;64.47;;
22425;SDS011;11380;50.822;15.790;2023-09-12T18:14:16;85.62;;;64.18;;
22425;SDS011;11380;50.822;15.790;2023-09-12T18:19:25;84.65;;;64.15;;
22425;SDS011;11380;50.822;15.790;2023-09-12T18:24:33;92.33;;;67.00;;
22425;SDS011;11380;50.822;15.790;2023-09-12T18:29:41;86.67;;;65.55;;
22425;SDS011;11380;50.822;15.790;2023-09-12T18:34:49;84.63;;;65.07;;
22425;SDS011;11380;50.822;15.790;2023-09-12T18:39:55;84.43;;;64.43;;
22425;SDS011;11380;50.822;15.790;2023-09-12T18:45:02;84.50;;;64.13;;
22425;SDS011;11380;50.822;15.790;2023-09-12T18:50:13;85.72;;;63.60;;
22425;SDS011;11380;50.822;15.790;2023-09-12T18:55:20;81.63;;;62.87;;
22425;SDS011;11380;50.822;15.790;2023-09-12T19:00:28;83.85;;;64.22;;
22425;SDS011;11380;50.822;15.790;2023-09-12T19:05:36;84.52;;;63.45;;
22425;SDS011;11380;50.822;15.790;2023-09-12T19:10:43;83.97;;;64.60;;
22425;SDS011;11380;50.822;15.790;2023-09-12T19:15:50;86.83;;;64.50;;
22425;SDS011;11380;50.822;15.790;2023-09-12T19:20:58;83.43;;;63.60;;
22425;SDS011;11380;50.822;15.790;2023-09-12T19:26:06;85.13;;;64.20;;
22425;SDS011;11380;50.822;15.790;2023-09-12T19:31:14;87.80;;;65.10;;
22425;SDS011;11380;50.822;15.790;2023-09-12T19:36:22;91.60;;;67.20;;
22425;SDS011;11380;50.822;15.790;2023-09-12T19:41:30;86.50;;;65.60;;
22425;SDS011;11380;50.822;15.790;2023-09-12T19:46:38;86.33;;;65.40;;
22425;SDS011;11380;50.822;15.790;2023-09-12T19:51:45;87.57;;;66.07;;
22425;SDS011;11380;50.822;15.790;2023-09-12T19:56:52;87.17;;;66.43;;
22425;SDS011;11380;50.822;15.790;2023-09-12T20:02:00;86.17;;;63.63;;
22425;SDS011;11380;50.822;15.790;2023-09-12T20:07:09;88.12;;;65.15;;
22425;SDS011;11380;50.822;15.790;2023-09-12T20:12:16;84.57;;;62.43;;
22425;SDS011;11380;50.822;15.790;2023-09-12T20:17:24;84.37;;;62.90;;
22425;SDS011;11380;50.822;15.790;2023-09-12T20:22:32;83.37;;;63.87;;
22425;SDS011;11380;50.822;15.790;2023-09-12T20:27:39;82.20;;;62.47;;
22425;SDS011;11380;50.822;15.790;2023-09-12T20:32:47;85.90;;;63.92;;
22425;SDS011;11380;50.822;15.790;2023-09-12T20:37:58;85.20;;;64.60;;
22425;SDS011;11380;50.822;15.790;2023-09-12T20:43:06;86.40;;;64.40;;
22425;SDS011;11380;50.822;15.790;2023-09-12T20:48:13;85.77;;;64.58;;
22425;SDS011;11380;50.822;15.790;2023-09-12T20:53:22;83.27;;;62.93;;
22425;SDS011;11380;50.822;15.790;2023-09-12T20:58:31;85.12;;;62.78;;
22425;SDS011;11380;50.822;15.790;2023-09-12T21:03:38;85.47;;;63.47;;
22425;SDS011;11380;50.822;15.790;2023-09-12T21:08:48;82.80;;;62.93;;
22425;SDS011;11380;50.822;15.790;2023-09-12T21:13:55;82.87;;;63.80;;
22425;SDS011;11380;50.822;15.790;2023-09-12T21:19:04;88.10;;;66.53;;
22425;SDS011;11380;50.822;15.790;2023-09-12T21:24:12;89.30;;;65.03;;
22425;SDS011;11380;50.822;15.790;2023-09-12T21:29:19;80.87;;;62.15;;
22425;SDS011;11380;50.822;15.790;2023-09-12T21:34:26;83.17;;;62.58;;
22425;SDS011;11380;50.822;15.790;2023-09-12T21:39:33;83.20;;;62.57;;
22425;SDS011;11380;50.822;15.790;2023-09-12T21:44:41;82.97;;;63.50;;
22425;SDS011;11380;50.822;15.790;2023-09-12T21:49:48;82.67;;;63.27;;
22425;SDS011;11380;50.822;15.790;2023-09-12T21:54:57;81.57;;;62.77;;
22425;SDS011;11380;50.822;15.790;2023-09-12T22:00:06;84.42;;;61.37;;
22425;SDS011;11380;50.822;15.790;2023-09-12T22:05:20;82.97;;;61.43;;
22425;SDS011;11380;50.822;15.790;2023-09-12T22:10:28;78.47;;;60.77;;
22425;SDS011;11380;50.822;15.790;2023-09-12T22:15:35;80.57;;;61.30;;
22425;SDS011;11380;50.822;15.790;2023-09-12T22:20:44;81.50;;;61.63;;
22425;SDS011;11380;50.822;15.790;2023-09-12T22:25:50;80.30;;;61.60;;
22425;SDS011;11380;50.822;15.790;2023-09-12T22:30:59;81.67;;;62.03;;
22425;SDS011;11380;50.822;15.790;2023-09-12T22:36:10;79.45;;;61.05;;
22425;SDS011;11380;50.822;15.790;2023-09-12T22:41:19;80.32;;;60.92;;
22425;SDS011;11380;50.822;15.790;2023-09-12T22:46:29;81.90;;;61.28;;
22425;SDS011;11380;50.822;15.790;2023-09-12T22:51:36;80.17;;;61.50;;
22425;SDS011;11380;50.822;15.790;2023-09-12T22:56:44;80.72;;;61.35;;
22425;SDS011;11380;50.822;15.790;2023-09-12T23:01:50;83.77;;;62.17;;
22425;SDS011;11380;50.822;15.790;2023-09-12T23:06:57;82.97;;;61.17;;
22425;SDS011;11380;50.822;15.790;2023-09-12T23:12:05;81.57;;;61.73;;
22425;SDS011;11380;50.822;15.790;2023-09-12T23:17:14;81.77;;;61.43;;
22425;SDS011;11380;50.822;15.790;2023-09-12T23:22:21;83.35;;;61.42;;
22425;SDS011;11380;50.822;15.790;2023-09-12T23:27:28;82.67;;;62.10;;
22425;SDS011;11380;50.822;15.790;2023-09-12T23:32:35;80.17;;;61.07;;
22425;SDS011;11380;50.822;15.790;2023-09-12T23:37:43;79.47;;;61.67;;
22425;SDS011;11380;50.822;15.790;2023-09-12T23:42:49;80.83;;;61.63;;
22425;SDS011;11380;50.822;15.790;2023-09-12T23:47:58;80.75;;;61.55;;
22425;SDS011;11380;50.822;15.790;2023-09-12T23:53:05;80.03;;;61.00;;
22425;SDS011;11380;50.822;15.790;2023-09-12T23:58:13;83.30;;;62.70;;
